sensor_id;sensor_type;location;lat;lon;timestamp;pressure;altitude;pressure_sealevel;temperature;humidity
11468;BME280;5790;42.762;23.430;2024-03-08T00:01:05;73921.28;;;-142.66;99.35
11468;BME280;5790;42.762;23.430;2024-03-08T00:03:32;73917.22;;;-142.66;99.33
11468;BME280;5790;42.762;23.430;2024-03-08T00:05:59;73913.13;;;-142.66;99.93
11468;BME280;5790;42.762;23.430;2024-03-08T00:08:28;73913.13;;;-142.66;99.83
11468;BME280;5790;42.762;23.430;2024-03-08T00:10:56;73929.47;;;-142.66;99.73
11468;BME280;5790;42.762;23.430;2024-03-08T00:13:23;73935.59;;;-142.66;100.00
11468;BME280;5790;42.762;23.430;2024-03-08T00:15:50;73933.53;;;-142.66;100.00
11468;BME280;5790;42.762;23.430;2024-03-08T00:18:17;73937.63;;;-142.66;100.00
11468;BME280;5790;42.762;23.430;2024-03-08T00:20:44;73931.50;;;-142.66;100.00
11468;BME280;5790;42.762;23.430;2024-03-08T00:23:12;73939.66;;;-142.66;100.00
11468;BME280;5790;42.762;23.430;2024-03-08T00:25:42;73951.91;;;-142.66;100.00
11468;BME280;5790;42.762;23.430;2024-03-08T00:28:09;73964.16;;;-142.66;100.00
11468;BME280;5790;42.762;23.430;2024-03-08T00:30:40;73988.66;;;-142.66;100.00
11468;BME280;5790;42.762;23.430;2024-03-08T00:33:08;73996.84;;;-142.66;100.00
11468;BME280;5790;42.762;23.430;2024-03-08T00:35:35;74017.25;;;-142.66;100.00
11468;BME280;5790;42.762;23.430;2024-03-08T00:38:02;74013.16;;;-142.66;100.00
11468;BME280;5790;42.762;23.430;2024-03-08T00:40:29;74011.13;;;-142.66;100.00
11468;BME280;5790;42.762;23.430;2024-03-08T00:42:57;74011.13;;;-142.66;100.00
11468;BME280;5790;42.762;23.430;2024-03-08T00:45:24;74021.34;;;-142.66;100.00
11468;BME280;5790;42.762;23.430;2024-03-08T00:47:51;74017.25;;;-142.66;100.00
11468;BME280;5790;42.762;23.430;2024-03-08T00:50:19;74019.28;;;-142.66;100.00
11468;BME280;5790;42.762;23.430;2024-03-08T00:52:46;74009.09;;;-142.66;100.00
11468;BME280;5790;42.762;23.430;2024-03-08T00:55:13;74000.91;;;-142.66;100.00
11468;BME280;5790;42.762;23.430;2024-03-08T00:57:40;73994.78;;;-142.66;100.00
11468;BME280;5790;42.762;23.430;2024-03-08T01:00:10;73992.75;;;-142.66;100.00
11468;BME280;5790;42.762;23.430;2024-03-08T01:02:38;73988.66;;;-142.66;100.00
11468;BME280;5790;42.762;23.430;2024-03-08T01:05:05;73992.75;;;-142.66;100.00
11468;BME280;5790;42.762;23.430;2024-03-08T01:07:33;73992.75;;;-142.66;100.00
11468;BME280;5790;42.762;23.430;2024-03-08T01:10:00;73996.84;;;-142.66;100.00
11468;BME280;5790;42.762;23.430;2024-03-08T01:12:27;73984.59;;;-142.66;100.00
11468;BME280;5790;42.762;23.430;2024-03-08T01:14:55;73974.38;;;-142.66;100.00
11468;BME280;5790;42.762;23.430;2024-03-08T01:17:24;73980.50;;;-142.66;100.00
11468;BME280;5790;42.762;23.430;2024-03-08T01:19:52;73982.53;;;-142.66;100.00
11468;BME280;5790;42.762;23.430;2024-03-08T01:22:19;73974.38;;;-142.66;100.00
11468;BME280;5790;42.762;23.430;2024-03-08T01:24:48;73970.28;;;-142.66;100.00
11468;BME280;5790;42.762;23.430;2024-03-08T01:27:15;73962.13;;;-142.66;100.00
11468;BME280;5790;42.762;23.430;2024-03-08T01:29:42;73966.22;;;-142.66;100.00
11468;BME280;5790;42.762;23.430;2024-03-08T01:32:09;73976.41;;;-142.66;100.00
11468;BME280;5790;42.762;23.430;2024-03-08T01:34:37;73951.91;;;-142.66;99.96
11468;BME280;5790;42.762;23.430;2024-03-08T01:37:04;73956.00;;;-142.66;99.72
11468;BME280;5790;42.762;23.430;2024-03-08T01:39:32;73964.16;;;-142.66;100.00
11468;BME280;5790;42.762;23.430;2024-03-08T01:41:59;73962.13;;;-142.66;100.00
11468;BME280;5790;42.762;23.430;2024-03-08T01:44:26;73947.84;;;-142.66;99.72
11468;BME280;5790;42.762;23.430;2024-03-08T01:46:53;73945.78;;;-142.66;100.00
11468;BME280;5790;42.762;23.430;2024-03-08T01:49:21;73935.59;;;-142.66;100.00
11468;BME280;5790;42.762;23.430;2024-03-08T01:51:51;73931.50;;;-142.66;99.57
11468;BME280;5790;42.762;23.430;2024-03-08T01:54:19;73931.50;;;-142.66;99.10
11468;BME280;5790;42.762;23.430;2024-03-08T01:56:46;73929.47;;;-142.66;99.16
11468;BME280;5790;42.762;23.430;2024-03-08T01:59:14;73935.59;;;-142.66;99.30
11468;BME280;5790;42.762;23.430;2024-03-08T02:01:42;73937.63;;;-142.66;100.00
11468;BME280;5790;42.762;23.430;2024-03-08T02:04:09;73927.41;;;-142.66;99.27
11468;BME280;5790;42.762;23.430;2024-03-08T02:06:36;73935.59;;;-142.66;98.90
11468;BME280;5790;42.762;23.430;2024-03-08T02:09:05;73945.78;;;-142.66;98.59
11468;BME280;5790;42.762;23.430;2024-03-08T02:11:33;73976.41;;;-142.66;96.01
11468;BME280;5790;42.762;23.430;2024-03-08T02:14:01;73986.63;;;-142.66;96.10
11468;BME280;5790;42.762;23.430;2024-03-08T02:16:28;73982.53;;;-142.66;97.20
11468;BME280;5790;42.762;23.430;2024-03-08T02:18:55;73986.63;;;-142.66;98.52
11468;BME280;5790;42.762;23.430;2024-03-08T02:21:24;74009.09;;;-142.66;100.00
11468;BME280;5790;42.762;23.430;2024-03-08T02:23:52;74002.97;;;-142.66;100.00
11468;BME280;5790;42.762;23.430;2024-03-08T02:26:19;73984.59;;;-142.66;100.00
11468;BME280;5790;42.762;23.430;2024-03-08T02:28:46;73968.25;;;-142.66;100.00
11468;BME280;5790;42.762;23.430;2024-03-08T02:31:14;73953.97;;;-142.66;100.00
11468;BME280;5790;42.762;23.430;2024-03-08T02:33:42;73947.84;;;-142.66;99.51
11468;BME280;5790;42.762;23.430;2024-03-08T02:36:08;73943.75;;;-142.66;98.22
11468;BME280;5790;42.762;23.430;2024-03-08T02:38:37;73953.97;;;-142.66;98.70
11468;BME280;5790;42.762;23.430;2024-03-08T02:41:06;73974.38;;;-142.66;100.00
11468;BME280;5790;42.762;23.430;2024-03-08T02:43:34;73970.28;;;-142.66;100.00
11468;BME280;5790;42.762;23.430;2024-03-08T02:46:01;73972.34;;;-142.66;100.00
11468;BME280;5790;42.762;23.430;2024-03-08T02:48:28;73974.38;;;-142.66;99.74
11468;BME280;5790;42.762;23.430;2024-03-08T02:50:55;73982.53;;;-142.66;98.19
11468;BME280;5790;42.762;23.430;2024-03-08T02:53:22;73990.72;;;-142.66;97.93
11468;BME280;5790;42.762;23.430;2024-03-08T02:55:51;74002.97;;;-142.66;97.99
11468;BME280;5790;42.762;23.430;2024-03-08T02:58:18;74007.03;;;-142.66;97.64
11468;BME280;5790;42.762;23.430;2024-03-08T03:00:45;74011.13;;;-142.66;97.62
11468;BME280;5790;42.762;23.430;2024-03-08T03:03:12;74002.97;;;-142.66;98.08
11468;BME280;5790;42.762;23.430;2024-03-08T03:05:39;74000.91;;;-142.66;98.08
11468;BME280;5790;42.762;23.430;2024-03-08T03:08:06;73998.88;;;-142.66;98.40
11468;BME280;5790;42.762;23.430;2024-03-08T03:10:34;74011.13;;;-142.66;97.93
11468;BME280;5790;42.762;23.430;2024-03-08T03:13:03;74013.16;;;-142.66;97.56
11468;BME280;5790;42.762;23.430;2024-03-08T03:15:31;74021.34;;;-142.66;98.08
11468;BME280;5790;42.762;23.430;2024-03-08T03:17:59;74023.38;;;-142.66;96.92
11468;BME280;5790;42.762;23.430;2024-03-08T03:20:26;74029.50;;;-142.66;97.07
11468;BME280;5790;42.762;23.430;2024-03-08T03:22:58;74035.63;;;-142.66;97.39
11468;BME280;5790;42.762;23.430;2024-03-08T03:25:27;74056.06;;;-142.66;97.33
11468;BME280;5790;42.762;23.430;2024-03-08T03:27:59;74047.88;;;-142.66;97.54
11468;BME280;5790;42.762;23.430;2024-03-08T03:30:28;74051.97;;;-142.66;97.39
11468;BME280;5790;42.762;23.430;2024-03-08T03:32:58;74037.69;;;-142.66;97.57
11468;BME280;5790;42.762;23.430;2024-03-08T03:35:27;74043.81;;;-142.66;97.99
11468;BME280;5790;42.762;23.430;2024-03-08T03:37:54;74045.84;;;-142.66;98.05
11468;BME280;5790;42.762;23.430;2024-03-08T03:40:32;74051.97;;;-142.66;97.99
11468;BME280;5790;42.762;23.430;2024-03-08T03:43:00;74054.00;;;-142.66;97.67
11468;BME280;5790;42.762;23.430;2024-03-08T03:45:30;74054.00;;;-142.66;98.04
11468;BME280;5790;42.762;23.430;2024-03-08T03:48:01;74060.13;;;-142.66;98.44
11468;BME280;5790;42.762;23.430;2024-03-08T03:50:28;74051.97;;;-142.66;98.58
11468;BME280;5790;42.762;23.430;2024-03-08T03:52:55;74039.72;;;-142.66;98.39
11468;BME280;5790;42.762;23.430;2024-03-08T03:55:22;74049.94;;;-142.66;97.94
11468;BME280;5790;42.762;23.430;2024-03-08T03:57:49;74058.09;;;-142.66;98.42
11468;BME280;5790;42.762;23.430;2024-03-08T04:00:17;74062.19;;;-142.66;98.53
11468;BME280;5790;42.762;23.430;2024-03-08T04:02:45;74070.34;;;-142.66;98.31
11468;BME280;5790;42.762;23.430;2024-03-08T04:05:13;74076.47;;;-142.66;98.38
11468;BME280;5790;42.762;23.430;2024-03-08T04:07:40;74080.56;;;-142.66;98.71
11468;BME280;5790;42.762;23.430;2024-03-08T04:10:08;74080.56;;;-142.66;98.00
11468;BME280;5790;42.762;23.430;2024-03-08T04:12:37;74074.44;;;-142.66;97.54
11468;BME280;5790;42.762;23.430;2024-03-08T04:15:05;74070.34;;;-142.66;97.66
11468;BME280;5790;42.762;23.430;2024-03-08T04:17:33;74066.25;;;-142.66;97.66
11468;BME280;5790;42.762;23.430;2024-03-08T04:20:05;74078.50;;;-142.66;97.57
11468;BME280;5790;42.762;23.430;2024-03-08T04:22:34;74088.72;;;-142.66;97.83
11468;BME280;5790;42.762;23.430;2024-03-08T04:25:01;74098.94;;;-142.66;97.79
11468;BME280;5790;42.762;23.430;2024-03-08T04:27:28;74105.06;;;-142.66;97.86
11468;BME280;5790;42.762;23.430;2024-03-08T04:29:56;74100.97;;;-142.66;98.42
11468;BME280;5790;42.762;23.430;2024-03-08T04:32:23;74105.06;;;-142.66;98.33
11468;BME280;5790;42.762;23.430;2024-03-08T04:34:50;74111.19;;;-142.66;98.33
11468;BME280;5790;42.762;23.430;2024-03-08T04:37:18;74113.22;;;-142.66;98.54
11468;BME280;5790;42.762;23.430;2024-03-08T04:39:47;74121.38;;;-142.66;98.67
11468;BME280;5790;42.762;23.430;2024-03-08T04:42:15;74131.59;;;-142.66;98.77
11468;BME280;5790;42.762;23.430;2024-03-08T04:44:43;74127.50;;;-142.66;98.85
11468;BME280;5790;42.762;23.430;2024-03-08T04:47:11;74121.38;;;-142.66;99.19
11468;BME280;5790;42.762;23.430;2024-03-08T04:49:37;74129.56;;;-142.66;98.90
11468;BME280;5790;42.762;23.430;2024-03-08T04:52:05;74133.63;;;-142.66;98.47
11468;BME280;5790;42.762;23.430;2024-03-08T04:54:34;74147.94;;;-142.66;98.48
11468;BME280;5790;42.762;23.430;2024-03-08T04:57:01;74162.22;;;-142.66;98.05
11468;BME280;5790;42.762;23.430;2024-03-08T04:59:30;74176.50;;;-142.66;98.41
11468;BME280;5790;42.762;23.430;2024-03-08T05:01:57;74190.81;;;-142.66;99.05
11468;BME280;5790;42.762;23.430;2024-03-08T05:04:24;74190.81;;;-142.66;99.99
11468;BME280;5790;42.762;23.430;2024-03-08T05:06:51;74211.22;;;-142.66;100.00
11468;BME280;5790;42.762;23.430;2024-03-08T05:09:19;74217.34;;;-142.66;100.00
11468;BME280;5790;42.762;23.430;2024-03-08T05:11:47;74215.31;;;-142.66;100.00
11468;BME280;5790;42.762;23.430;2024-03-08T05:14:15;74231.66;;;-142.66;100.00
11468;BME280;5790;42.762;23.430;2024-03-08T05:16:45;74237.78;;;-142.66;100.00
11468;BME280;5790;42.762;23.430;2024-03-08T05:19:14;74250.03;;;-142.66;100.00
11468;BME280;5790;42.762;23.430;2024-03-08T05:21:42;74256.16;;;-142.66;100.00
11468;BME280;5790;42.762;23.430;2024-03-08T05:24:10;74254.09;;;-142.66;100.00
11468;BME280;5790;42.762;23.430;2024-03-08T05:26:37;74252.06;;;-142.66;100.00
11468;BME280;5790;42.762;23.430;2024-03-08T05:29:06;74258.19;;;-142.66;100.00
11468;BME280;5790;42.762;23.430;2024-03-08T05:31:39;74256.16;;;-142.66;100.00
11468;BME280;5790;42.762;23.430;2024-03-08T05:34:09;74262.28;;;-142.66;100.00
11468;BME280;5790;42.762;23.430;2024-03-08T05:36:40;74260.22;;;-142.66;100.00
11468;BME280;5790;42.762;23.430;2024-03-08T05:39:07;74266.34;;;-142.66;100.00
11468;BME280;5790;42.762;23.430;2024-03-08T05:41:34;74276.56;;;-142.66;100.00
11468;BME280;5790;42.762;23.430;2024-03-08T05:44:01;74264.31;;;-142.66;100.00
11468;BME280;5790;42.762;23.430;2024-03-08T05:46:29;74264.31;;;-142.66;100.00
11468;BME280;5790;42.762;23.430;2024-03-08T05:48:56;74254.09;;;-142.66;100.00
11468;BME280;5790;42.762;23.430;2024-03-08T05:51:24;74245.94;;;-142.66;100.00
11468;BME280;5790;42.762;23.430;2024-03-08T05:53:52;74235.72;;;-142.66;100.00
11468;BME280;5790;42.762;23.430;2024-03-08T05:56:22;74217.34;;;-142.66;100.00
11468;BME280;5790;42.762;23.430;2024-03-08T05:58:49;74219.41;;;-142.66;100.00
11468;BME280;5790;42.762;23.430;2024-03-08T06:01:17;74217.34;;;-142.66;100.00
11468;BME280;5790;42.762;23.430;2024-03-08T06:03:45;74229.59;;;-142.66;100.00
11468;BME280;5790;42.762;23.430;2024-03-08T06:06:14;74219.41;;;-142.66;100.00
11468;BME280;5790;42.762;23.430;2024-03-08T06:08:43;74211.22;;;-142.66;99.95
11468;BME280;5790;42.762;23.430;2024-03-08T06:11:10;74219.41;;;-142.66;99.46
11468;BME280;5790;42.762;23.430;2024-03-08T06:13:37;74215.31;;;-142.66;99.13
11468;BME280;5790;42.762;23.430;2024-03-08T06:16:04;74223.47;;;-142.66;99.26
11468;BME280;5790;42.762;23.430;2024-03-08T06:18:33;74250.03;;;-142.66;99.26
11468;BME280;5790;42.762;23.430;2024-03-08T06:21:03;74264.31;;;-142.66;99.46
11468;BME280;5790;42.762;23.430;2024-03-08T06:23:31;74262.28;;;-142.66;99.49
11468;BME280;5790;42.762;23.430;2024-03-08T06:25:58;74260.22;;;-142.66;99.17
11468;BME280;5790;42.762;23.430;2024-03-08T06:28:25;74258.19;;;-142.66;99.00
11468;BME280;5790;42.762;23.430;2024-03-08T06:30:52;74254.09;;;-142.66;99.43
11468;BME280;5790;42.762;23.430;2024-03-08T06:33:19;74264.31;;;-142.66;99.31
11468;BME280;5790;42.762;23.430;2024-03-08T06:35:46;74252.06;;;-142.66;99.17
11468;BME280;5790;42.762;23.430;2024-03-08T06:38:16;74260.22;;;-142.66;98.64
11468;BME280;5790;42.762;23.430;2024-03-08T06:40:43;74250.03;;;-142.66;99.16
11468;BME280;5790;42.762;23.430;2024-03-08T06:43:13;74262.28;;;-142.66;98.65
11468;BME280;5790;42.762;23.430;2024-03-08T06:45:41;74260.22;;;-142.66;98.33
11468;BME280;5790;42.762;23.430;2024-03-08T06:48:14;74243.91;;;-142.66;98.16
11468;BME280;5790;42.762;23.430;2024-03-08T06:50:42;74264.31;;;-142.66;97.89
11468;BME280;5790;42.762;23.430;2024-03-08T06:53:10;74254.09;;;-142.66;97.70
11468;BME280;5790;42.762;23.430;2024-03-08T06:55:39;74264.31;;;-142.66;98.04
11468;BME280;5790;42.762;23.430;2024-03-08T06:58:06;74252.06;;;-142.66;98.47
11468;BME280;5790;42.762;23.430;2024-03-08T07:00:33;74243.91;;;-142.66;98.70
11468;BME280;5790;42.762;23.430;2024-03-08T07:03:01;74225.53;;;-142.66;97.66
11468;BME280;5790;42.762;23.430;2024-03-08T07:05:29;74209.19;;;-142.66;97.44
11468;BME280;5790;42.762;23.430;2024-03-08T07:07:58;74207.16;;;-142.66;97.10
11468;BME280;5790;42.762;23.430;2024-03-08T07:10:25;74217.34;;;-142.66;96.49
11468;BME280;5790;42.762;23.430;2024-03-08T07:12:54;74213.28;;;-142.66;96.54
11468;BME280;5790;42.762;23.430;2024-03-08T07:15:21;74223.47;;;-142.66;96.44
11468;BME280;5790;42.762;23.430;2024-03-08T07:17:49;74231.66;;;-142.66;96.13
11468;BME280;5790;42.762;23.430;2024-03-08T07:20:18;74217.34;;;-142.66;96.56
11468;BME280;5790;42.762;23.430;2024-03-08T07:22:45;74207.16;;;-142.66;96.40
11468;BME280;5790;42.762;23.430;2024-03-08T07:25:14;74213.28;;;-142.66;95.01
11468;BME280;5790;42.762;23.430;2024-03-08T07:27:48;74194.91;;;-142.66;94.18
11468;BME280;5790;42.762;23.430;2024-03-08T07:30:16;74182.63;;;-142.66;94.04
11468;BME280;5790;42.762;23.430;2024-03-08T07:32:57;74180.59;;;-142.66;93.74
11468;BME280;5790;42.762;23.430;2024-03-08T07:35:24;74209.19;;;-142.66;93.21
11468;BME280;5790;42.762;23.430;2024-03-08T07:37:52;74207.16;;;-142.66;93.95
11468;BME280;5790;42.762;23.430;2024-03-08T07:40:20;74196.94;;;-142.66;93.50
11468;BME280;5790;42.762;23.430;2024-03-08T07:42:48;74201.03;;;-142.66;93.36
11468;BME280;5790;42.762;23.430;2024-03-08T07:45:17;74207.16;;;-142.66;92.62
11468;BME280;5790;42.762;23.430;2024-03-08T07:47:44;74196.94;;;-142.66;93.71
11468;BME280;5790;42.762;23.430;2024-03-08T07:50:11;74176.50;;;-142.66;94.35
11468;BME280;5790;42.762;23.430;2024-03-08T07:52:42;74174.47;;;-142.66;93.69
11468;BME280;5790;42.762;23.430;2024-03-08T07:55:09;74160.19;;;-142.66;93.66
11468;BME280;5790;42.762;23.430;2024-03-08T07:57:36;74143.84;;;-142.66;92.93
11468;BME280;5790;42.762;23.430;2024-03-08T08:00:06;74131.59;;;-142.66;92.84
11468;BME280;5790;42.762;23.430;2024-03-08T08:02:35;74152.00;;;-142.66;91.54
11468;BME280;5790;42.762;23.430;2024-03-08T08:05:02;74092.81;;;-142.66;92.89
11468;BME280;5790;42.762;23.430;2024-03-08T08:07:30;74082.59;;;-142.66;91.57
11468;BME280;5790;42.762;23.430;2024-03-08T08:09:57;74054.00;;;-142.66;89.98
11468;BME280;5790;42.762;23.430;2024-03-08T08:12:24;74019.28;;;-142.66;88.87
11468;BME280;5790;42.762;23.430;2024-03-08T08:14:51;74023.38;;;-142.66;88.25
11468;BME280;5790;42.762;23.430;2024-03-08T08:17:18;74033.59;;;-142.66;88.17
11468;BME280;5790;42.762;23.430;2024-03-08T08:19:47;74009.09;;;-142.66;87.25
11468;BME280;5790;42.762;23.430;2024-03-08T08:22:14;73974.38;;;-142.66;88.54
11468;BME280;5790;42.762;23.430;2024-03-08T08:24:41;73982.53;;;-142.66;86.65
11468;BME280;5790;42.762;23.430;2024-03-08T08:27:08;73990.72;;;-142.66;87.19
11468;BME280;5790;42.762;23.430;2024-03-08T08:29:37;73982.53;;;-142.66;87.88
11468;BME280;5790;42.762;23.430;2024-03-08T08:32:05;73978.47;;;-142.66;87.21
11468;BME280;5790;42.762;23.430;2024-03-08T08:34:32;73982.53;;;-142.66;87.85
11468;BME280;5790;42.762;23.430;2024-03-08T08:37:00;73994.78;;;-142.66;86.81
11468;BME280;5790;42.762;23.430;2024-03-08T08:39:27;73998.88;;;-142.66;86.17
11468;BME280;5790;42.762;23.430;2024-03-08T08:41:58;73984.59;;;-142.66;87.21
11468;BME280;5790;42.762;23.430;2024-03-08T08:44:25;73988.66;;;-142.66;86.48
11468;BME280;5790;42.762;23.430;2024-03-08T08:46:52;73972.34;;;-142.66;85.23
11468;BME280;5790;42.762;23.430;2024-03-08T08:49:20;73953.97;;;-142.66;84.48
11468;BME280;5790;42.762;23.430;2024-03-08T08:51:49;73956.00;;;-142.66;83.93
11468;BME280;5790;42.762;23.430;2024-03-08T08:54:18;73962.13;;;-142.66;84.84
11468;BME280;5790;42.762;23.430;2024-03-08T08:56:46;74000.91;;;-142.66;85.60
11468;BME280;5790;42.762;23.430;2024-03-08T08:59:13;73990.72;;;-142.66;86.01
11468;BME280;5790;42.762;23.430;2024-03-08T09:01:41;73980.50;;;-142.66;86.71
11468;BME280;5790;42.762;23.430;2024-03-08T09:04:08;73988.66;;;-142.66;85.59
11468;BME280;5790;42.762;23.430;2024-03-08T09:06:37;73966.22;;;-142.66;85.00
11468;BME280;5790;42.762;23.430;2024-03-08T09:09:06;73974.38;;;-142.66;85.48
11468;BME280;5790;42.762;23.430;2024-03-08T09:11:37;73937.63;;;-142.66;86.73
11468;BME280;5790;42.762;23.430;2024-03-08T09:14:07;73949.88;;;-142.66;85.80
11468;BME280;5790;42.762;23.430;2024-03-08T09:16:34;73945.78;;;-142.66;86.97
11468;BME280;5790;42.762;23.430;2024-03-08T09:19:02;73968.25;;;-142.66;84.93
11468;BME280;5790;42.762;23.430;2024-03-08T09:21:29;73972.34;;;-142.66;85.79
11468;BME280;5790;42.762;23.430;2024-03-08T09:23:57;73974.38;;;-142.66;86.35
11468;BME280;5790;42.762;23.430;2024-03-08T09:26:24;73968.25;;;-142.66;86.50
11468;BME280;5790;42.762;23.430;2024-03-08T09:28:53;73974.38;;;-142.66;85.58
11468;BME280;5790;42.762;23.430;2024-03-08T09:31:21;73966.22;;;-142.66;86.00
11468;BME280;5790;42.762;23.430;2024-03-08T09:33:48;73943.75;;;-142.66;84.87
11468;BME280;5790;42.762;23.430;2024-03-08T09:36:16;73937.63;;;-142.66;85.10
11468;BME280;5790;42.762;23.430;2024-03-08T09:38:43;73945.78;;;-142.66;83.82
11468;BME280;5790;42.762;23.430;2024-03-08T09:41:10;73951.91;;;-142.66;83.11
11468;BME280;5790;42.762;23.430;2024-03-08T09:43:38;73953.97;;;-142.66;80.76
11468;BME280;5790;42.762;23.430;2024-03-08T09:46:07;73935.59;;;-142.66;81.89
11468;BME280;5790;42.762;23.430;2024-03-08T09:48:34;73933.53;;;-142.66;82.15
11468;BME280;5790;42.762;23.430;2024-03-08T09:51:03;73939.66;;;-142.66;81.06
11468;BME280;5790;42.762;23.430;2024-03-08T09:53:30;73937.63;;;-142.66;80.44
11468;BME280;5790;42.762;23.430;2024-03-08T09:55:57;73951.91;;;-142.66;80.98
11468;BME280;5790;42.762;23.430;2024-03-08T09:58:24;73958.03;;;-142.66;81.08
11468;BME280;5790;42.762;23.430;2024-03-08T10:01:20;73966.22;;;-142.66;80.75
11468;BME280;5790;42.762;23.430;2024-03-08T10:03:47;73943.75;;;-142.66;80.75
11468;BME280;5790;42.762;23.430;2024-03-08T10:06:15;73941.72;;;-142.66;81.05
11468;BME280;5790;42.762;23.430;2024-03-08T10:08:42;73933.53;;;-142.66;80.62
11468;BME280;5790;42.762;23.430;2024-03-08T10:11:10;73921.28;;;-142.66;79.26
11468;BME280;5790;42.762;23.430;2024-03-08T10:13:38;73923.34;;;-142.66;79.24
11468;BME280;5790;42.762;23.430;2024-03-08T10:16:07;73904.97;;;-142.66;79.31
11468;BME280;5790;42.762;23.430;2024-03-08T10:18:36;73890.66;;;-142.66;80.92
11468;BME280;5790;42.762;23.430;2024-03-08T10:21:03;73911.09;;;-142.66;77.93
11468;BME280;5790;42.762;23.430;2024-03-08T10:23:31;73913.13;;;-142.66;77.51
11468;BME280;5790;42.762;23.430;2024-03-08T10:26:10;73931.50;;;-142.66;76.12
11468;BME280;5790;42.762;23.430;2024-03-08T10:28:41;73896.78;;;-142.66;77.48
11468;BME280;5790;42.762;23.430;2024-03-08T10:31:08;73925.38;;;-142.66;76.98
11468;BME280;5790;42.762;23.430;2024-03-08T10:33:37;73907.00;;;-142.66;78.00
11468;BME280;5790;42.762;23.430;2024-03-08T10:36:07;73909.03;;;-142.66;77.58
11468;BME280;5790;42.762;23.430;2024-03-08T10:38:36;73898.84;;;-142.66;77.13
11468;BME280;5790;42.762;23.430;2024-03-08T10:41:05;73907.00;;;-142.66;78.02
11468;BME280;5790;42.762;23.430;2024-03-08T10:43:42;73888.63;;;-142.66;79.75
11468;BME280;5790;42.762;23.430;2024-03-08T10:46:17;73894.75;;;-142.66;77.94
11468;BME280;5790;42.762;23.430;2024-03-08T10:48:52;73890.66;;;-142.66;78.13
11468;BME280;5790;42.762;23.430;2024-03-08T10:51:24;73872.28;;;-142.66;79.72
11468;BME280;5790;42.762;23.430;2024-03-08T10:53:52;73847.78;;;-142.66;79.78
11468;BME280;5790;42.762;23.430;2024-03-08T10:56:19;73845.75;;;-142.66;76.27
11468;BME280;5790;42.762;23.430;2024-03-08T10:58:48;73839.63;;;-142.66;75.91
11468;BME280;5790;42.762;23.430;2024-03-08T11:01:16;73847.78;;;-142.66;76.87
11468;BME280;5790;42.762;23.430;2024-03-08T11:03:47;73831.47;;;-142.66;78.92
11468;BME280;5790;42.762;23.430;2024-03-08T11:06:23;73851.88;;;-142.66;77.86
11468;BME280;5790;42.762;23.430;2024-03-08T11:08:56;73868.22;;;-142.66;75.63
11468;BME280;5790;42.762;23.430;2024-03-08T11:11:27;73880.47;;;-142.66;75.90
11468;BME280;5790;42.762;23.430;2024-03-08T11:13:55;73868.22;;;-142.66;77.64
11468;BME280;5790;42.762;23.430;2024-03-08T11:16:39;73888.63;;;-142.66;76.10
11468;BME280;5790;42.762;23.430;2024-03-08T11:19:24;73862.09;;;-142.66;78.70
11468;BME280;5790;42.762;23.430;2024-03-08T11:22:04;73870.25;;;-142.66;76.08
11468;BME280;5790;42.762;23.430;2024-03-08T11:24:38;73876.38;;;-142.66;76.67
11468;BME280;5790;42.762;23.430;2024-03-08T11:27:06;73858.00;;;-142.66;78.61
11468;BME280;5790;42.762;23.430;2024-03-08T11:29:38;73845.75;;;-142.66;75.44
11468;BME280;5790;42.762;23.430;2024-03-08T11:32:10;73847.78;;;-142.66;76.37
11468;BME280;5790;42.762;23.430;2024-03-08T11:34:40;73868.22;;;-142.66;74.58
11468;BME280;5790;42.762;23.430;2024-03-08T11:37:12;73860.03;;;-142.66;77.03
11468;BME280;5790;42.762;23.430;2024-03-08T11:39:41;73835.53;;;-142.66;77.43
11468;BME280;5790;42.762;23.430;2024-03-08T11:42:13;73835.53;;;-142.66;77.03
11468;BME280;5790;42.762;23.430;2024-03-08T11:44:41;73845.75;;;-142.66;75.15
11468;BME280;5790;42.762;23.430;2024-03-08T11:47:10;73862.09;;;-142.66;76.73
11468;BME280;5790;42.762;23.430;2024-03-08T11:49:37;73855.97;;;-142.66;79.43
11468;BME280;5790;42.762;23.430;2024-03-08T11:52:05;73825.34;;;-142.66;79.00
11468;BME280;5790;42.762;23.430;2024-03-08T11:54:34;73819.22;;;-142.66;77.40
11468;BME280;5790;42.762;23.430;2024-03-08T11:57:01;73847.78;;;-142.66;73.81
11468;BME280;5790;42.762;23.430;2024-03-08T11:59:28;73833.50;;;-142.66;76.27
11468;BME280;5790;42.762;23.430;2024-03-08T12:02:01;73835.53;;;-142.66;76.06
11468;BME280;5790;42.762;23.430;2024-03-08T12:04:29;73858.00;;;-142.66;75.53
11468;BME280;5790;42.762;23.430;2024-03-08T12:06:59;73884.53;;;-142.66;76.40
11468;BME280;5790;42.762;23.430;2024-03-08T12:09:27;73884.53;;;-142.66;76.15
11468;BME280;5790;42.762;23.430;2024-03-08T12:11:57;73866.16;;;-142.66;77.33
11468;BME280;5790;42.762;23.430;2024-03-08T12:14:25;73870.25;;;-142.66;74.91
11468;BME280;5790;42.762;23.430;2024-03-08T12:16:52;73855.97;;;-142.66;75.89
11468;BME280;5790;42.762;23.430;2024-03-08T12:19:19;73866.16;;;-142.66;75.42
11468;BME280;5790;42.762;23.430;2024-03-08T12:21:46;73866.16;;;-142.66;74.61
11468;BME280;5790;42.762;23.430;2024-03-08T12:24:16;73849.84;;;-142.66;74.77
11468;BME280;5790;42.762;23.430;2024-03-08T12:26:45;73843.72;;;-142.66;74.40
11468;BME280;5790;42.762;23.430;2024-03-08T12:29:25;73849.84;;;-142.66;73.02
11468;BME280;5790;42.762;23.430;2024-03-08T12:31:54;73853.91;;;-142.66;73.78
11468;BME280;5790;42.762;23.430;2024-03-08T12:34:24;73862.09;;;-142.66;73.18
11468;BME280;5790;42.762;23.430;2024-03-08T12:36:52;73845.75;;;-142.66;73.43
11468;BME280;5790;42.762;23.430;2024-03-08T12:39:21;73858.00;;;-142.66;72.94
11468;BME280;5790;42.762;23.430;2024-03-08T12:41:52;73855.97;;;-142.66;73.38
11468;BME280;5790;42.762;23.430;2024-03-08T12:44:20;73851.88;;;-142.66;73.74